Terminal Aerodrome Forecast
Issued by NWS Pittsburgh, PA

Current Version | Previous Version | Text Only | Print | Product List | Glossary Off
Versions: 1 2 3 4 5 6 7 8 9 10 11 12 13 14 15 16 17 18 19 20 21 22 23 24 25 26 27

000
FTUS41 KPBZ 210856 AAA
TAFPIT
TAF AMD
KPIT 210856Z 2109/2212 19004KT P6SM -RA BKN011
     FM210930 21006KT P6SM -RA BKN008
     FM211400 26007KT P6SM BKN015
     FM211600 26007KT P6SM BKN025
     FM211700 26008KT P6SM BKN050
     FM212300 27008KT P6SM FEW250
     FM221000 31005KT P6SM SCT001=

USA.gov is the U.S. government's official web portal to all federal, state and local government web resources and services.